createdAt,value
2023-04-29T00:01:58.863Z,30.33
2023-04-29T00:04:27.218Z,34.17
2023-04-29T00:06:55.640Z,34.42
2023-04-29T00:09:23.687Z,31.52
2023-04-29T00:11:51.814Z,30.58
2023-04-29T00:14:19.854Z,31.23
2023-04-29T00:16:49.227Z,30.95
2023-04-29T00:19:18.353Z,31.90
2023-04-29T00:21:46.389Z,29.17
2023-04-29T00:24:14.334Z,31.23
2023-04-29T00:26:42.365Z,31.23
2023-04-29T00:29:10.507Z,37.03
2023-04-29T00:31:38.715Z,41.90
2023-04-29T00:34:08.249Z,39.35
2023-04-29T00:36:36.350Z,34.80
2023-04-29T00:39:04.531Z,42.20
2023-04-29T00:41:33.608Z,39.63
2023-04-29T00:44:01.662Z,47.72
2023-04-29T00:46:29.705Z,43.35
2023-04-29T00:48:58.013Z,50.03
2023-04-29T00:51:28.163Z,53.75
2023-04-29T00:53:56.400Z,47.70
2023-04-29T00:56:24.622Z,53.95
2023-04-29T00:58:53.131Z,53.03
2023-04-29T01:01:21.840Z,51.00
2023-04-29T01:03:50.940Z,46.78
2023-04-29T01:06:30.354Z,53.83
2023-04-29T01:09:16.319Z,48.30
2023-04-29T01:12:09.408Z,54.50
2023-04-29T01:14:40.457Z,47.00
2023-04-29T01:17:12.921Z,53.30
2023-04-29T01:19:47.054Z,57.28
2023-04-29T01:22:17.682Z,59.20
2023-04-29T01:24:48.242Z,61.78
2023-04-29T01:27:26.115Z,60.42
2023-04-29T01:30:02.021Z,57.40
2023-04-29T01:32:41.737Z,55.08
2023-04-29T01:35:18.761Z,58.58
2023-04-29T01:37:54.053Z,65.72
2023-04-29T01:40:30.618Z,65.13
2023-04-29T01:43:12.732Z,63.03
2023-04-29T01:45:45.099Z,57.47
2023-04-29T01:48:14.514Z,64.35
2023-04-29T01:50:43.214Z,67.28
2023-04-29T01:53:15.829Z,63.70
2023-04-29T01:55:45.596Z,63.13
2023-04-29T01:58:17.642Z,66.45
2023-04-29T02:01:17.714Z,67.00
2023-04-29T02:03:46.360Z,75.20
2023-04-29T02:06:16.541Z,71.78
2023-04-29T02:08:46.334Z,72.30
2023-04-29T02:11:16.010Z,69.72
2023-04-29T02:13:44.256Z,72.38
2023-04-29T02:16:15.116Z,74.80
2023-04-29T02:18:48.341Z,70.93
2023-04-29T02:21:16.333Z,67.63
2023-04-29T02:23:44.421Z,87.13
2023-04-29T02:26:13.977Z,76.57
2023-04-29T02:28:43.419Z,72.07
2023-04-29T02:31:11.528Z,65.35
2023-04-29T02:33:39.508Z,65.50
2023-04-29T02:36:10.620Z,62.92
2023-04-29T02:38:38.694Z,58.58
2023-04-29T02:41:06.858Z,61.42
2023-04-29T02:43:34.940Z,69.10
2023-04-29T02:46:04.290Z,72.57
2023-04-29T02:48:32.480Z,82.63
2023-04-29T02:51:01.571Z,85.03
2023-04-29T02:53:29.543Z,82.25
2023-04-29T02:55:57.490Z,93.53
2023-04-29T02:58:25.677Z,91.88
2023-04-29T03:00:53.728Z,96.45
2023-04-29T03:03:23.762Z,107.68
2023-04-29T03:05:52.263Z,98.32
2023-04-29T03:08:20.256Z,102.80
2023-04-29T03:10:48.196Z,94.65
2023-04-29T03:13:16.202Z,83.40
2023-04-29T03:15:46.007Z,77.22
2023-04-29T03:18:14.170Z,78.55
2023-04-29T03:20:43.548Z,72.30
2023-04-29T03:23:11.666Z,71.18
2023-04-29T03:25:40.757Z,65.57
2023-04-29T03:28:08.853Z,61.03
2023-04-29T03:30:37.869Z,56.35
2023-04-29T03:33:05.976Z,57.78
2023-04-29T03:35:34.086Z,57.58
2023-04-29T03:38:22.027Z,60.55
2023-04-29T03:40:50.657Z,58.38
2023-04-29T03:43:19.521Z,56.80
2023-04-29T03:45:47.656Z,58.25
2023-04-29T03:48:20.033Z,55.90
2023-04-29T03:50:48.585Z,46.03
2023-04-29T03:53:17.322Z,48.08
2023-04-29T03:55:46.928Z,47.30
2023-04-29T03:58:15.064Z,46.10
2023-04-29T04:00:44.218Z,41.03
2023-04-29T04:03:17.590Z,42.47
2023-04-29T04:05:45.806Z,38.92
2023-04-29T04:08:16.500Z,40.38
2023-04-29T04:10:48.374Z,39.65
2023-04-29T04:13:26.298Z,40.70
2023-04-29T04:15:54.358Z,38.60
2023-04-29T04:18:22.425Z,38.72
2023-04-29T04:20:51.345Z,36.90
2023-04-29T04:23:19.309Z,38.40
2023-04-29T04:25:49.777Z,37.42
2023-04-29T04:28:40.754Z,36.75
2023-04-29T04:31:17.702Z,34.80
2023-04-29T04:33:46.672Z,38.50
2023-04-29T04:36:15.266Z,43.10
2023-04-29T04:38:43.465Z,39.15
2023-04-29T04:41:14.816Z,36.65
2023-04-29T04:43:45.097Z,37.55
2023-04-29T04:46:22.878Z,37.45
2023-04-29T04:49:04.246Z,30.60
2023-04-29T04:51:34.666Z,32.30
2023-04-29T04:54:02.777Z,29.90
2023-04-29T04:56:37.091Z,31.08
2023-04-29T04:59:06.743Z,28.33
2023-04-29T05:01:37.196Z,30.08
2023-04-29T05:04:05.615Z,29.02
2023-04-29T05:06:33.643Z,25.85
2023-04-29T05:09:02.232Z,28.05
2023-04-29T05:11:30.369Z,33.03
2023-04-29T05:14:14.830Z,29.90
2023-04-29T05:16:43.726Z,32.70
2023-04-29T05:19:11.713Z,32.15
2023-04-29T05:21:41.375Z,28.17
2023-04-29T05:24:11.532Z,25.20
2023-04-29T05:26:39.579Z,25.88
2023-04-29T05:29:08.269Z,26.70
2023-04-29T05:31:47.192Z,25.67
2023-04-29T05:34:15.295Z,28.48
2023-04-29T05:36:43.248Z,30.95
2023-04-29T05:39:11.354Z,28.95
2023-04-29T05:41:39.775Z,27.20
2023-04-29T05:44:18.623Z,28.67
2023-04-29T05:46:49.272Z,30.48
2023-04-29T05:49:18.059Z,25.90
2023-04-29T05:51:46.134Z,31.40
2023-04-29T05:54:14.273Z,28.50
2023-04-29T05:56:42.639Z,30.40
2023-04-29T05:59:10.900Z,27.05
2023-04-29T06:01:38.910Z,25.88
2023-04-29T06:04:08.756Z,27.30
2023-04-29T06:06:57.649Z,29.50
2023-04-29T06:09:45.839Z,29.73
2023-04-29T06:12:14.053Z,28.23
2023-04-29T06:14:44.618Z,30.27
2023-04-29T06:17:13.381Z,24.98
2023-04-29T06:19:46.235Z,30.67
2023-04-29T06:22:14.189Z,27.33
2023-04-29T06:24:49.744Z,29.90
2023-04-29T06:27:26.187Z,30.75
2023-04-29T06:29:54.650Z,27.88
2023-04-29T06:32:23.346Z,28.80
2023-04-29T06:34:52.795Z,32.45
2023-04-29T06:37:41.067Z,29.88
2023-04-29T06:40:27.534Z,27.17
2023-04-29T06:43:09.244Z,30.33
2023-04-29T06:45:57.039Z,27.17
2023-04-29T06:48:34.282Z,28.98
2023-04-29T06:51:06.496Z,29.42
2023-04-29T06:53:37.661Z,23.42
2023-04-29T06:56:06.241Z,29.17
2023-04-29T06:58:34.364Z,26.27
2023-04-29T07:01:04.081Z,24.70
2023-04-29T07:03:32.249Z,27.02
2023-04-29T07:06:00.433Z,24.95
2023-04-29T07:08:29.847Z,24.05
2023-04-29T07:10:58.910Z,21.95
2023-04-29T07:13:27.131Z,26.25
2023-04-29T07:15:55.161Z,27.80
2023-04-29T07:18:23.436Z,27.42
2023-04-29T07:20:52.967Z,27.88
2023-04-29T07:23:21.097Z,26.73
2023-04-29T07:25:50.514Z,20.00
2023-04-29T07:28:18.555Z,27.13
2023-04-29T07:30:47.054Z,26.13
2023-04-29T07:33:15.222Z,21.73
2023-04-29T07:35:44.593Z,25.50
2023-04-29T07:38:12.973Z,24.50
2023-04-29T07:40:43.235Z,26.60
2023-04-29T07:43:13.019Z,21.80
2023-04-29T07:45:41.559Z,24.55
2023-04-29T07:48:09.638Z,26.08
2023-04-29T07:50:37.812Z,27.73
2023-04-29T07:53:06.104Z,29.00
2023-04-29T07:55:34.259Z,25.88
2023-04-29T07:58:02.573Z,29.35
2023-04-29T08:00:32.287Z,28.88
2023-04-29T08:03:00.630Z,23.40
2023-04-29T08:05:30.690Z,26.40
2023-04-29T08:07:58.991Z,27.88
2023-04-29T08:10:27.407Z,22.33
2023-04-29T08:12:56.067Z,23.23
2023-04-29T08:15:24.461Z,25.88
2023-04-29T08:17:54.306Z,23.73
2023-04-29T08:20:22.545Z,21.33
2023-04-29T08:22:50.653Z,24.38
2023-04-29T08:25:18.772Z,22.73
2023-04-29T08:27:46.765Z,24.73
2023-04-29T08:30:15.017Z,21.65
2023-04-29T08:32:43.084Z,23.35
2023-04-29T08:35:12.942Z,23.02
2023-04-29T08:37:41.371Z,20.33
2023-04-29T08:40:10.344Z,22.30
2023-04-29T08:42:38.864Z,20.63
2023-04-29T08:45:07.670Z,20.10
2023-04-29T08:47:35.818Z,22.17
2023-04-29T08:50:06.455Z,22.10
2023-04-29T08:52:36.105Z,19.13
2023-04-29T08:55:05.407Z,20.80
2023-04-29T08:57:39.614Z,21.60
2023-04-29T09:00:10.139Z,27.30
2023-04-29T09:02:44.279Z,36.72
2023-04-29T09:05:12.672Z,32.95
2023-04-29T09:07:42.944Z,40.85
2023-04-29T09:10:11.884Z,38.22
2023-04-29T09:12:40.024Z,40.60
2023-04-29T09:15:09.086Z,43.85
2023-04-29T09:17:42.201Z,42.55
2023-04-29T09:20:32.094Z,45.75
2023-04-29T09:23:03.552Z,46.55
2023-04-29T09:25:32.548Z,44.45
2023-04-29T09:28:15.304Z,53.60
2023-04-29T09:30:47.977Z,53.80
2023-04-29T09:33:17.192Z,52.10
2023-04-29T09:35:47.036Z,61.63
2023-04-29T09:38:17.684Z,55.47
2023-04-29T09:40:57.435Z,63.05
2023-04-29T09:43:26.749Z,68.30
2023-04-29T09:45:55.189Z,63.47
2023-04-29T09:48:23.380Z,60.67
2023-04-29T09:51:02.580Z,60.92
2023-04-29T09:53:32.527Z,55.80
2023-04-29T09:56:02.410Z,46.50
2023-04-29T09:58:34.063Z,48.50
2023-04-29T10:01:03.523Z,47.67
2023-04-29T10:03:34.867Z,40.67
2023-04-29T10:06:04.917Z,46.85
2023-04-29T10:08:36.383Z,49.42
2023-04-29T10:11:06.050Z,47.22
2023-04-29T10:13:38.504Z,59.80
2023-04-29T10:16:16.723Z,45.95
2023-04-29T10:18:53.269Z,44.47
2023-04-29T10:21:25.801Z,52.67
2023-04-29T10:23:57.643Z,45.67
2023-04-29T10:26:29.376Z,43.05
2023-04-29T10:28:59.883Z,62.72
2023-04-29T10:31:28.342Z,55.85
2023-04-29T10:33:58.659Z,49.28
2023-04-29T10:36:28.635Z,63.15
2023-04-29T10:39:00.634Z,57.78
2023-04-29T10:41:32.665Z,55.92
2023-04-29T10:44:02.787Z,66.38
2023-04-29T10:46:32.138Z,56.78
2023-04-29T10:49:03.867Z,53.95
2023-04-29T10:51:34.833Z,53.95
2023-04-29T10:54:08.120Z,52.30
2023-04-29T10:56:44.496Z,62.35
2023-04-29T10:59:14.284Z,49.30
2023-04-29T11:01:50.956Z,49.45
2023-04-29T11:04:20.060Z,50.28
2023-04-29T11:06:52.296Z,53.67
2023-04-29T11:09:25.472Z,50.80
2023-04-29T11:12:05.378Z,52.45
2023-04-29T11:14:37.788Z,62.10
2023-04-29T11:17:09.212Z,52.85
2023-04-29T11:19:41.582Z,52.55
2023-04-29T11:22:12.736Z,49.58
2023-04-29T11:24:56.601Z,44.05
2023-04-29T11:27:27.175Z,43.28
2023-04-29T11:29:58.712Z,43.58
2023-04-29T11:32:27.834Z,47.47
2023-04-29T11:34:56.646Z,41.42
2023-04-29T11:37:26.234Z,47.13
2023-04-29T11:40:01.060Z,42.35
2023-04-29T11:42:29.570Z,45.90
2023-04-29T11:44:59.475Z,39.67
2023-04-29T11:47:29.567Z,39.15
2023-04-29T11:50:05.559Z,43.95
2023-04-29T11:52:33.998Z,44.13
2023-04-29T11:55:03.933Z,41.85
2023-04-29T11:57:32.148Z,38.03
2023-04-29T12:00:00.413Z,38.95
2023-04-29T12:02:31.645Z,41.80
2023-04-29T12:05:01.220Z,34.33
2023-04-29T12:07:29.601Z,40.08
2023-04-29T12:09:57.805Z,40.50
2023-04-29T12:12:28.451Z,33.22
2023-04-29T12:14:56.999Z,39.80
2023-04-29T12:17:25.788Z,38.53
2023-04-29T12:19:53.883Z,37.38
2023-04-29T12:22:21.903Z,33.40
2023-04-29T12:24:50.918Z,40.65
2023-04-29T12:27:19.240Z,40.60
2023-04-29T12:29:48.699Z,37.53
2023-04-29T12:32:19.286Z,27.70
2023-04-29T12:34:47.519Z,31.35
2023-04-29T12:37:16.608Z,31.13
2023-04-29T12:39:44.877Z,28.48
2023-04-29T12:42:17.115Z,29.40
2023-04-29T12:44:48.334Z,31.75
2023-04-29T12:47:17.579Z,30.17
2023-04-29T12:49:47.159Z,26.00
2023-04-29T12:52:15.469Z,31.40
2023-04-29T12:54:44.332Z,29.92
2023-04-29T12:57:12.545Z,27.05
2023-04-29T12:59:40.919Z,30.73
2023-04-29T13:02:10.648Z,26.88
2023-04-29T13:04:40.103Z,34.55
2023-04-29T13:07:08.474Z,27.73
2023-04-29T13:09:38.193Z,27.17
2023-04-29T13:12:09.407Z,25.65
2023-04-29T13:14:37.728Z,28.00
2023-04-29T13:17:06.751Z,33.40
2023-04-29T13:19:50.143Z,31.17
2023-04-29T13:22:19.835Z,25.75
2023-04-29T13:24:47.815Z,27.55
2023-04-29T13:27:15.864Z,43.03
2023-04-29T13:29:43.880Z,50.80
2023-04-29T13:32:12.207Z,40.20
2023-04-29T13:34:43.283Z,31.17
2023-04-29T13:37:11.755Z,33.53
2023-04-29T13:39:39.872Z,28.63
2023-04-29T13:42:08.926Z,37.08
2023-04-29T13:44:50.984Z,38.47
2023-04-29T13:47:25.774Z,36.88
2023-04-29T13:53:10.721Z,35.20
2023-04-29T13:56:11.547Z,42.88
2023-04-29T14:03:07.470Z,31.63
2023-04-29T14:05:37.297Z,31.42
2023-04-29T14:08:06.313Z,33.45
2023-04-29T14:10:34.574Z,26.60
2023-04-29T14:13:03.151Z,33.75
2023-04-29T14:15:31.197Z,23.83
2023-04-29T14:17:59.337Z,25.55
2023-04-29T14:20:27.474Z,23.73
2023-04-29T14:22:56.944Z,19.77
2023-04-29T14:25:26.682Z,28.60
2023-04-29T14:27:56.327Z,20.52
2023-04-29T14:30:24.577Z,23.98
2023-04-29T14:32:52.722Z,19.80
2023-04-29T14:35:21.244Z,21.25
2023-04-29T14:37:50.505Z,25.92
2023-04-29T14:40:19.857Z,24.75
2023-04-29T14:42:47.830Z,20.63
2023-04-29T14:45:17.119Z,20.83
2023-04-29T14:47:45.356Z,23.45
2023-04-29T14:50:13.558Z,20.40
2023-04-29T14:52:41.633Z,20.83
2023-04-29T14:55:10.068Z,22.33
2023-04-29T14:57:39.862Z,23.65
2023-04-29T15:00:09.209Z,21.60
2023-04-29T15:02:37.302Z,20.98
2023-04-29T15:05:05.736Z,17.60
2023-04-29T15:07:34.015Z,22.88
2023-04-29T15:10:02.224Z,21.42
2023-04-29T15:12:30.243Z,17.35
2023-04-29T15:14:59.731Z,16.15
2023-04-29T15:17:28.557Z,18.83
2023-04-29T15:19:56.645Z,15.20
2023-04-29T15:22:24.708Z,15.32
2023-04-29T15:24:53.245Z,17.25
2023-04-29T15:27:21.479Z,18.85
2023-04-29T15:29:49.600Z,17.15
2023-04-29T15:32:19.412Z,15.48
2023-04-29T15:34:47.619Z,17.27
2023-04-29T15:37:15.636Z,17.02
2023-04-29T15:39:43.898Z,16.42
2023-04-29T15:42:11.948Z,16.77
2023-04-29T15:44:40.118Z,15.95
2023-04-29T15:47:08.112Z,14.10
2023-04-29T15:49:38.187Z,16.90
2023-04-29T15:52:06.331Z,16.50
2023-04-29T15:54:34.377Z,12.95
2023-04-29T15:57:03.637Z,11.05
2023-04-29T15:59:31.663Z,14.82
2023-04-29T16:01:59.772Z,12.55
2023-04-29T16:04:27.807Z,13.50
2023-04-29T16:06:57.126Z,16.17
2023-04-29T16:09:25.147Z,11.93
2023-04-29T16:11:53.709Z,10.75
2023-04-29T16:14:21.787Z,11.40
2023-04-29T16:16:49.846Z,9.88
2023-04-29T16:19:18.093Z,10.55
2023-04-29T16:21:46.246Z,13.93
2023-04-29T16:24:16.437Z,11.80
2023-04-29T16:26:44.683Z,14.88
2023-04-29T16:29:13.366Z,13.27
2023-04-29T16:31:41.599Z,15.32
2023-04-29T16:34:09.808Z,12.70
2023-04-29T16:36:37.953Z,12.02
2023-04-29T16:39:06.228Z,11.13
2023-04-29T16:41:37.328Z,11.25
2023-04-29T16:44:05.605Z,16.35
2023-04-29T16:46:34.276Z,9.65
2023-04-29T16:49:02.893Z,11.73
2023-04-29T16:51:33.426Z,11.95
2023-04-29T16:54:01.718Z,15.88
2023-04-29T16:56:29.839Z,14.43
2023-04-29T16:58:59.283Z,12.50
2023-04-29T17:01:27.594Z,12.00
2023-04-29T17:03:56.868Z,10.65
2023-04-29T17:06:25.524Z,16.10
2023-04-29T17:08:53.840Z,14.95
2023-04-29T17:11:21.870Z,9.18
2023-04-29T17:13:50.440Z,11.10
2023-04-29T17:16:19.960Z,14.32
2023-04-29T17:18:47.963Z,10.25
2023-04-29T17:21:15.982Z,13.20
2023-04-29T17:23:44.092Z,11.77
2023-04-29T17:26:12.079Z,14.73
2023-04-29T17:28:40.010Z,14.30
2023-04-29T17:31:07.989Z,12.98
2023-04-29T17:33:39.702Z,14.57
2023-04-29T17:36:07.895Z,12.80
2023-04-29T17:38:35.913Z,10.43
2023-04-29T17:41:04.263Z,15.45
2023-04-29T17:43:35.375Z,13.13
2023-04-29T17:46:03.608Z,15.32
2023-04-29T17:48:32.399Z,12.60
2023-04-29T17:51:01.883Z,12.57
2023-04-29T17:53:29.998Z,11.32
2023-04-29T17:55:58.004Z,14.30
2023-04-29T17:58:28.670Z,15.57
2023-04-29T18:00:56.909Z,13.35
2023-04-29T18:03:27.326Z,11.70
2023-04-29T18:05:55.737Z,12.65
2023-04-29T18:08:25.115Z,11.55
2023-04-29T18:10:53.033Z,13.73
2023-04-29T18:13:21.099Z,13.25
2023-04-29T18:15:49.330Z,12.40
2023-04-29T18:18:17.328Z,14.35
2023-04-29T18:20:45.592Z,13.43
2023-04-29T18:23:14.028Z,15.15
2023-04-29T18:25:43.583Z,19.48
2023-04-29T18:28:24.036Z,15.25
2023-04-29T18:30:53.241Z,17.02
2023-04-29T18:33:21.447Z,15.15
2023-04-29T18:35:49.692Z,15.38
2023-04-29T18:38:17.736Z,15.13
2023-04-29T18:40:47.231Z,15.77
2023-04-29T18:43:18.037Z,12.02
2023-04-29T18:45:46.532Z,14.90
2023-04-29T18:48:15.060Z,13.10
2023-04-29T18:50:43.614Z,13.18
2023-04-29T18:53:11.790Z,14.18
2023-04-29T18:55:39.862Z,15.57
2023-04-29T18:58:09.263Z,15.13
2023-04-29T19:00:37.365Z,14.80
2023-04-29T19:03:06.202Z,15.07
2023-04-29T19:05:34.705Z,15.90
2023-04-29T19:08:02.790Z,13.90
2023-04-29T19:10:30.943Z,19.02
2023-04-29T19:12:58.934Z,15.95
2023-04-29T19:15:28.588Z,21.65
2023-04-29T19:17:56.940Z,15.57
2023-04-29T19:20:25.558Z,14.13
2023-04-29T19:22:53.826Z,15.88
2023-04-29T19:25:22.197Z,15.07
2023-04-29T19:27:51.049Z,16.50
2023-04-29T19:30:19.165Z,14.23
2023-04-29T19:32:48.634Z,14.05
2023-04-29T19:35:16.665Z,15.65
2023-04-29T19:37:44.654Z,17.35
2023-04-29T19:40:13.080Z,16.52
2023-04-29T19:42:41.160Z,15.60
2023-04-29T19:45:10.150Z,14.05
2023-04-29T19:47:38.217Z,13.75
2023-04-29T19:50:08.181Z,13.13
2023-04-29T19:52:36.155Z,16.67
2023-04-29T19:55:04.862Z,17.20
2023-04-29T19:57:33.222Z,15.15
2023-04-29T20:00:01.392Z,16.08
2023-04-29T20:02:29.540Z,14.57
2023-04-29T20:04:57.665Z,16.38
2023-04-29T20:07:27.081Z,16.90
2023-04-29T20:09:55.555Z,18.45
2023-04-29T20:12:23.768Z,16.33
2023-04-29T20:14:51.895Z,14.02
2023-04-29T20:17:19.939Z,14.98
2023-04-29T20:19:47.942Z,13.27
2023-04-29T20:22:15.913Z,14.18
2023-04-29T20:24:45.802Z,14.20
2023-04-29T20:27:13.813Z,15.60
2023-04-29T20:29:41.742Z,17.00
2023-04-29T20:32:09.772Z,17.35
2023-04-29T20:34:37.876Z,16.35
2023-04-29T20:37:06.957Z,12.95
2023-04-29T20:39:35.194Z,15.80
2023-04-29T20:42:05.286Z,16.85
2023-04-29T20:44:33.997Z,13.18
2023-04-29T20:47:02.061Z,20.25
2023-04-29T20:49:30.015Z,15.45
2023-04-29T20:51:58.300Z,13.15
2023-04-29T20:54:26.806Z,18.02
2023-04-29T20:56:54.739Z,14.32
2023-04-29T20:59:24.074Z,14.02
2023-04-29T21:01:52.422Z,13.20
2023-04-29T21:04:21.059Z,14.48
2023-04-29T21:06:50.673Z,16.95
2023-04-29T21:09:19.528Z,18.05
2023-04-29T21:11:47.673Z,16.70
2023-04-29T21:14:15.818Z,21.83
2023-04-29T21:16:45.244Z,18.98
2023-04-29T21:19:13.362Z,18.38
2023-04-29T21:21:41.425Z,18.67
2023-04-29T21:24:09.415Z,15.40
2023-04-29T21:26:37.405Z,16.67
2023-04-29T21:29:05.879Z,14.95
2023-04-29T21:31:33.916Z,21.25
2023-04-29T21:34:03.261Z,12.32
2023-04-29T21:36:32.055Z,12.35
2023-04-29T21:39:00.055Z,13.10
2023-04-29T21:41:30.276Z,13.18
2023-04-29T21:44:00.269Z,10.88
2023-04-29T21:46:29.190Z,12.38
2023-04-29T21:48:58.730Z,16.13
2023-04-29T21:51:29.336Z,11.43
2023-04-29T21:53:57.321Z,10.20
2023-04-29T21:56:25.751Z,14.00
2023-04-29T21:58:53.945Z,12.93
2023-04-29T22:01:39.853Z,11.93
2023-04-29T22:04:08.411Z,12.65
2023-04-29T22:06:37.881Z,12.48
2023-04-29T22:09:06.545Z,13.73
2023-04-29T22:11:34.778Z,10.90
2023-04-29T22:14:02.876Z,12.57
2023-04-29T22:16:30.995Z,11.10
2023-04-29T22:18:59.368Z,13.73
2023-04-29T22:21:27.864Z,11.30
2023-04-29T22:23:57.199Z,10.98
2023-04-29T22:26:25.501Z,10.85
2023-04-29T22:28:53.777Z,12.18
2023-04-29T22:31:22.079Z,11.57
2023-04-29T22:33:50.128Z,10.93
2023-04-29T22:36:18.222Z,11.40
2023-04-29T22:38:46.246Z,12.40
2023-04-29T22:41:16.433Z,10.15
2023-04-29T22:43:44.453Z,12.07
2023-04-29T22:46:12.487Z,11.02
2023-04-29T22:48:40.613Z,14.02
2023-04-29T22:51:08.610Z,13.55
2023-04-29T22:53:36.570Z,17.00
2023-04-29T22:56:05.290Z,16.45
2023-04-29T22:58:34.747Z,12.25
2023-04-29T23:01:02.830Z,13.70
2023-04-29T23:03:30.843Z,14.38
2023-04-29T23:05:59.406Z,15.55
2023-04-29T23:08:27.625Z,13.25
2023-04-29T23:10:55.765Z,13.27
2023-04-29T23:13:23.775Z,10.65
2023-04-29T23:15:56.626Z,13.73
2023-04-29T23:18:24.733Z,10.82
2023-04-29T23:20:53.007Z,10.93
2023-04-29T23:23:21.023Z,12.77
2023-04-29T23:25:49.197Z,13.10
2023-04-29T23:28:17.398Z,9.18
2023-04-29T23:30:47.255Z,12.15
2023-04-29T23:33:16.658Z,9.85
2023-04-29T23:35:50.666Z,10.98
2023-04-29T23:38:18.878Z,11.30
2023-04-29T23:40:47.296Z,11.88
2023-04-29T23:43:15.784Z,11.60
2023-04-29T23:45:46.009Z,10.27
2023-04-29T23:48:15.640Z,12.20
2023-04-29T23:50:47.017Z,9.35
2023-04-29T23:53:15.802Z,12.65
2023-04-29T23:55:43.870Z,10.25
2023-04-29T23:58:11.911Z,11.45
